createdAt,value
2018-05-13T00:01:27.278Z,15.40
2018-05-13T00:03:54.766Z,15.30
2018-05-13T00:06:22.253Z,15.30
2018-05-13T00:08:49.746Z,15.30
2018-05-13T00:11:17.228Z,15.20
2018-05-13T00:13:45.494Z,15.10
2018-05-13T00:16:13.744Z,15.10
2018-05-13T00:18:42.010Z,15.10
2018-05-13T00:21:09.487Z,15.00
2018-05-13T00:23:36.985Z,15.10
2018-05-13T00:26:06.136Z,15.00
2018-05-13T00:28:33.665Z,15.00
2018-05-13T00:31:01.174Z,15.00
2018-05-13T00:33:28.668Z,14.90
2018-05-13T00:35:56.913Z,14.90
2018-05-13T00:38:24.419Z,14.90
2018-05-13T00:40:51.909Z,14.90
2018-05-13T00:43:19.401Z,14.80
2018-05-13T00:45:46.883Z,14.80
2018-05-13T00:48:15.145Z,14.70
2018-05-13T00:50:43.411Z,14.70
2018-05-13T00:53:10.922Z,14.60
2018-05-13T00:55:38.404Z,14.60
2018-05-13T00:58:05.885Z,14.60
2018-05-13T01:00:34.153Z,14.60
2018-05-13T01:03:01.629Z,14.50
2018-05-13T01:05:29.893Z,14.50
2018-05-13T01:07:57.374Z,14.40
2018-05-13T01:10:25.637Z,14.50
2018-05-13T01:12:53.892Z,14.40
2018-05-13T01:15:21.433Z,14.40
2018-05-13T01:17:48.922Z,14.40
2018-05-13T01:20:16.421Z,14.40
2018-05-13T01:22:43.902Z,14.40
2018-05-13T01:25:11.404Z,14.40
2018-05-13T01:27:38.891Z,14.30
2018-05-13T01:30:07.163Z,14.30
2018-05-13T01:32:35.411Z,14.30
2018-05-13T01:35:02.916Z,14.20
2018-05-13T01:37:30.396Z,14.30
2018-05-13T01:39:57.894Z,14.20
2018-05-13T01:42:25.375Z,14.20
2018-05-13T01:44:53.642Z,14.20
2018-05-13T01:47:21.889Z,14.20
2018-05-13T01:49:49.386Z,14.10
2018-05-13T01:52:17.629Z,14.20
2018-05-13T01:54:45.132Z,14.10
2018-05-13T01:57:12.617Z,14.10
2018-05-13T01:59:40.098Z,14.20
2018-05-13T02:02:07.598Z,14.20
2018-05-13T02:04:35.841Z,14.20
2018-05-13T02:07:03.338Z,14.10
2018-05-13T02:09:31.588Z,14.20
2018-05-13T02:11:59.081Z,14.20
2018-05-13T02:14:27.333Z,14.20
2018-05-13T02:16:54.828Z,14.20
2018-05-13T02:19:22.305Z,14.30
2018-05-13T02:21:49.802Z,14.30
2018-05-13T02:24:17.289Z,14.20
2018-05-13T02:26:45.550Z,14.30
2018-05-13T02:29:13.030Z,14.20
2018-05-13T02:31:41.301Z,14.20
2018-05-13T02:34:09.554Z,14.20
2018-05-13T02:36:37.053Z,14.20
2018-05-13T02:39:04.534Z,14.20
2018-05-13T02:41:32.032Z,14.20
2018-05-13T02:44:00.299Z,14.10
2018-05-13T02:46:27.802Z,14.10
2018-05-13T02:48:55.281Z,14.10
2018-05-13T02:51:22.780Z,14.10
2018-05-13T02:53:50.270Z,14.00
2018-05-13T02:56:18.541Z,14.00
2018-05-13T02:58:46.785Z,13.90
2018-05-13T03:01:14.291Z,13.90
2018-05-13T03:03:41.777Z,13.90
2018-05-13T03:06:09.283Z,13.80
2018-05-13T03:08:36.765Z,13.80
2018-05-13T03:11:05.010Z,13.80
2018-05-13T03:13:32.504Z,13.70
2018-05-13T03:16:00.750Z,13.80
2018-05-13T03:18:28.241Z,13.70
2018-05-13T03:20:55.724Z,13.80
2018-05-13T03:23:23.229Z,13.80
2018-05-13T03:25:50.704Z,13.70
2018-05-13T03:28:18.973Z,13.70
2018-05-13T03:30:47.233Z,13.60
2018-05-13T03:33:14.737Z,13.60
2018-05-13T03:35:42.225Z,13.60
2018-05-13T03:38:09.717Z,13.60
2018-05-13T03:40:37.201Z,13.60
2018-05-13T03:43:05.457Z,13.60
2018-05-13T03:45:32.936Z,13.60
2018-05-13T03:48:01.201Z,13.60
2018-05-13T03:50:29.462Z,13.60
2018-05-13T03:52:56.961Z,13.50
2018-05-13T03:55:24.439Z,13.60
2018-05-13T03:57:51.929Z,13.60
2018-05-13T04:00:19.409Z,13.60
2018-05-13T04:02:46.919Z,13.60
2018-05-13T04:05:14.400Z,13.50
2018-05-13T04:07:48.561Z,13.50
2018-05-13T04:10:28.845Z,13.50
2018-05-13T04:13:08.115Z,13.40
2018-05-13T04:15:35.594Z,13.40
2018-05-13T04:18:03.091Z,13.50
2018-05-13T04:20:30.573Z,13.50
2018-05-13T04:22:58.069Z,13.50
2018-05-13T04:25:25.546Z,13.60
2018-05-13T04:27:53.809Z,13.60
2018-05-13T04:30:21.304Z,13.60
2018-05-13T04:32:49.626Z,13.60
2018-05-13T04:35:17.121Z,13.70
2018-05-13T04:37:45.369Z,13.70
2018-05-13T04:40:12.863Z,13.60
2018-05-13T04:42:41.105Z,13.80
2018-05-13T04:45:08.597Z,13.70
2018-05-13T04:47:36.845Z,13.80
2018-05-13T04:50:04.341Z,13.70
2018-05-13T04:52:32.589Z,13.90
2018-05-13T04:55:00.085Z,13.80
2018-05-13T04:57:27.566Z,13.90
2018-05-13T04:59:55.052Z,13.90
2018-05-13T05:02:22.543Z,13.90
2018-05-13T05:04:50.805Z,14.00
2018-05-13T05:07:18.287Z,14.00
2018-05-13T05:09:46.549Z,14.10
2018-05-13T05:12:14.799Z,14.20
2018-05-13T05:14:42.294Z,14.10
2018-05-13T05:17:10.539Z,14.20
2018-05-13T05:19:38.033Z,14.20
2018-05-13T05:22:06.283Z,14.40
2018-05-13T05:24:33.773Z,14.30
2018-05-13T05:27:01.251Z,14.40
2018-05-13T05:29:28.749Z,14.50
2018-05-13T05:31:56.225Z,14.50
2018-05-13T05:34:23.721Z,14.60
2018-05-13T05:36:51.197Z,14.70
2018-05-13T05:39:18.678Z,14.70
2018-05-13T05:41:46.172Z,14.80
2018-05-13T05:44:14.418Z,14.80
2018-05-13T05:46:41.956Z,14.70
2018-05-13T05:49:09.424Z,14.80
2018-05-13T05:51:36.944Z,14.80
2018-05-13T05:54:05.180Z,14.80
2018-05-13T05:56:32.680Z,14.80
2018-05-13T05:59:00.927Z,14.80
2018-05-13T06:01:28.431Z,14.80
2018-05-13T06:03:55.905Z,14.90
2018-05-13T06:06:23.405Z,14.90
2018-05-13T06:08:50.885Z,15.00
2018-05-13T06:11:19.149Z,15.10
2018-05-13T06:13:47.401Z,15.20
2018-05-13T06:16:14.901Z,15.20
2018-05-13T06:18:43.150Z,15.50
2018-05-13T06:21:10.641Z,15.40
2018-05-13T06:23:38.897Z,15.70
2018-05-13T06:26:07.157Z,15.70
2018-05-13T06:28:34.633Z,15.70
2018-05-13T06:31:02.909Z,15.80
2018-05-13T06:33:30.380Z,15.70
2018-05-13T06:35:58.637Z,15.70
2018-05-13T06:38:26.113Z,15.70
2018-05-13T06:40:54.378Z,15.80
2018-05-13T06:43:21.862Z,15.70
2018-05-13T06:45:50.121Z,15.80
2018-05-13T06:48:17.597Z,15.70
2018-05-13T06:50:45.867Z,15.90
2018-05-13T06:53:14.101Z,15.90
2018-05-13T06:55:41.581Z,15.80
2018-05-13T06:58:09.101Z,15.90
2018-05-13T07:00:36.577Z,15.90
2018-05-13T07:03:04.074Z,15.90
2018-05-13T07:05:32.332Z,16.00
2018-05-13T07:07:59.834Z,16.00
2018-05-13T07:10:27.336Z,16.10
2018-05-13T07:12:54.812Z,16.10
2018-05-13T07:15:22.290Z,16.10
2018-05-13T07:17:50.552Z,16.10
2018-05-13T07:20:18.030Z,16.00
2018-05-13T07:22:46.292Z,16.00
2018-05-13T07:25:13.773Z,15.90
2018-05-13T07:27:42.046Z,15.90
2018-05-13T07:30:10.288Z,15.90
2018-05-13T07:32:37.874Z,15.80
2018-05-13T07:35:06.867Z,15.70
2018-05-13T07:37:35.139Z,15.60
2018-05-13T07:40:03.402Z,15.50
2018-05-13T07:42:30.901Z,15.50
2018-05-13T07:44:59.152Z,15.40
2018-05-13T07:47:26.647Z,15.30
2018-05-13T07:49:54.125Z,15.30
2018-05-13T07:52:21.621Z,15.20
2018-05-13T07:54:49.101Z,15.20
2018-05-13T07:57:17.360Z,15.20
2018-05-13T07:59:44.841Z,15.10
2018-05-13T08:02:13.089Z,15.20
2018-05-13T08:04:40.580Z,15.20
2018-05-13T08:07:08.828Z,15.20
2018-05-13T08:09:36.317Z,15.20
2018-05-13T08:12:04.560Z,15.40
2018-05-13T08:14:32.053Z,15.30
2018-05-13T08:16:59.533Z,15.40
2018-05-13T08:19:27.053Z,15.50
2018-05-13T08:21:54.529Z,15.50
2018-05-13T08:24:22.793Z,15.50
2018-05-13T08:26:51.046Z,15.50
2018-05-13T08:29:18.551Z,15.40
2018-05-13T08:31:46.042Z,15.50
2018-05-13T08:34:13.541Z,15.50
2018-05-13T08:36:42.533Z,15.60
2018-05-13T08:39:10.031Z,15.60
2018-05-13T08:41:37.529Z,15.70
2018-05-13T08:44:05.033Z,15.70
2018-05-13T08:46:33.282Z,15.70
2018-05-13T08:49:00.777Z,15.70
2018-05-13T08:51:28.257Z,15.70
2018-05-13T08:53:55.781Z,15.70
2018-05-13T08:56:23.258Z,15.70
2018-05-13T08:58:50.757Z,15.70
2018-05-13T09:01:18.247Z,15.60
2018-05-13T09:03:45.750Z,15.50
2018-05-13T09:06:13.237Z,15.70
2018-05-13T09:08:40.725Z,15.70
2018-05-13T09:11:08.994Z,15.80
2018-05-13T09:13:37.109Z,15.80
2018-05-13T09:16:05.498Z,15.90
2018-05-13T09:18:32.985Z,15.90
2018-05-13T09:21:00.481Z,16.00
2018-05-13T09:23:28.726Z,16.10
2018-05-13T09:25:56.222Z,16.10
2018-05-13T09:28:24.473Z,16.30
2018-05-13T09:30:51.981Z,16.20
2018-05-13T09:33:19.457Z,16.40
2018-05-13T09:35:46.959Z,16.50
2018-05-13T09:38:14.441Z,16.60
2018-05-13T09:40:42.711Z,16.50
2018-05-13T09:43:10.954Z,16.50
2018-05-13T09:45:38.462Z,16.40
2018-05-13T09:48:05.948Z,16.50
2018-05-13T09:50:33.454Z,16.50
2018-05-13T09:53:00.937Z,16.60
2018-05-13T09:55:29.210Z,16.80
2018-05-13T09:57:57.456Z,16.90
2018-05-13T10:00:24.969Z,16.90
2018-05-13T10:02:52.464Z,16.90
2018-05-13T10:05:19.961Z,16.90
2018-05-13T10:07:48.215Z,17.00
2018-05-13T10:10:15.716Z,16.90
2018-05-13T10:12:43.193Z,16.90
2018-05-13T10:15:10.698Z,16.70
2018-05-13T10:17:38.177Z,16.70
2018-05-13T10:20:06.452Z,16.30
2018-05-13T10:22:34.703Z,16.10
2018-05-13T10:25:02.192Z,16.10
2018-05-13T10:27:30.474Z,15.90
2018-05-13T10:29:57.961Z,15.80
2018-05-13T10:32:25.470Z,15.80
2018-05-13T10:34:52.952Z,15.70
2018-05-13T10:37:21.225Z,15.70
2018-05-13T10:39:48.715Z,15.60
2018-05-13T10:42:16.270Z,15.60
2018-05-13T10:44:43.750Z,15.60
2018-05-13T10:47:11.254Z,15.60
2018-05-13T10:49:39.505Z,15.70
2018-05-13T10:52:07.029Z,15.70
2018-05-13T10:54:34.514Z,15.80
2018-05-13T10:57:02.017Z,15.80
2018-05-13T10:59:30.270Z,15.90
2018-05-13T11:01:57.785Z,15.80
2018-05-13T11:04:25.270Z,15.90
2018-05-13T11:06:52.769Z,16.10
2018-05-13T11:09:21.027Z,16.30
2018-05-13T11:11:48.531Z,16.20
2018-05-13T11:14:16.014Z,16.30
2018-05-13T11:16:43.513Z,16.30
2018-05-13T11:19:11.760Z,16.30
2018-05-13T11:21:39.261Z,16.30
2018-05-13T11:24:07.531Z,16.40
2018-05-13T11:26:35.800Z,16.50
2018-05-13T11:29:03.278Z,16.40
2018-05-13T11:31:31.526Z,16.60
2018-05-13T11:33:59.033Z,16.60
2018-05-13T11:36:26.529Z,16.50
2018-05-13T11:38:54.801Z,16.50
2018-05-13T11:41:22.280Z,16.40
2018-05-13T11:43:49.778Z,16.50
2018-05-13T11:46:18.035Z,16.40
2018-05-13T11:48:46.309Z,16.50
2018-05-13T11:51:14.577Z,16.50
2018-05-13T11:53:42.085Z,16.50
2018-05-13T11:56:09.565Z,16.50
2018-05-13T11:58:37.829Z,16.40
2018-05-13T12:01:05.313Z,16.40
2018-05-13T12:03:32.812Z,16.50
2018-05-13T12:06:01.062Z,16.50
2018-05-13T12:08:28.573Z,16.50
2018-05-13T12:10:56.058Z,16.50
2018-05-13T12:13:23.560Z,16.50
2018-05-13T12:15:51.813Z,16.60
2018-05-13T12:18:19.308Z,16.50
2018-05-13T12:20:46.794Z,16.50
2018-05-13T12:23:14.305Z,16.50
2018-05-13T12:25:41.849Z,16.50
2018-05-13T12:28:09.303Z,16.50
2018-05-13T12:30:36.794Z,16.50
2018-05-13T12:33:05.095Z,16.30
2018-05-13T12:35:32.586Z,16.20
2018-05-13T12:38:00.105Z,16.30
2018-05-13T12:40:27.602Z,16.30
2018-05-13T12:42:55.083Z,16.20
2018-05-13T12:45:22.585Z,16.30
2018-05-13T12:47:50.069Z,16.40
2018-05-13T12:50:17.566Z,16.40
2018-05-13T12:52:45.045Z,16.40
2018-05-13T12:55:13.313Z,16.40
2018-05-13T12:57:41.561Z,16.30
2018-05-13T13:00:09.061Z,16.30
2018-05-13T13:02:37.304Z,16.50
2018-05-13T13:05:04.804Z,16.50
2018-05-13T13:07:33.154Z,16.50
2018-05-13T13:10:01.353Z,16.60
2018-05-13T13:12:29.601Z,16.60
2018-05-13T13:14:57.105Z,16.60
2018-05-13T13:17:24.582Z,16.60
2018-05-13T13:19:52.077Z,16.70
2018-05-13T13:22:19.560Z,16.80
2018-05-13T13:24:47.825Z,17.00
2018-05-13T13:27:15.305Z,17.00
2018-05-13T13:29:43.569Z,17.20
2018-05-13T13:32:11.816Z,17.20
2018-05-13T13:34:39.320Z,17.20
2018-05-13T13:37:07.569Z,17.50
2018-05-13T13:39:35.065Z,17.40
2018-05-13T13:42:03.305Z,17.50
2018-05-13T13:44:30.813Z,17.40
2018-05-13T13:46:58.293Z,17.50
2018-05-13T13:49:25.801Z,17.40
2018-05-13T13:51:54.052Z,17.00
2018-05-13T13:54:21.550Z,16.90
2018-05-13T13:56:49.038Z,17.00
2018-05-13T13:59:16.537Z,16.90
2018-05-13T14:01:44.022Z,16.90
2018-05-13T14:04:11.525Z,16.90
2018-05-13T14:06:39.029Z,16.90
2018-05-13T14:09:07.279Z,17.00
2018-05-13T14:11:34.777Z,17.00
2018-05-13T14:14:03.028Z,16.80
2018-05-13T14:16:30.532Z,16.80
2018-05-13T14:18:58.017Z,16.70
2018-05-13T14:21:25.518Z,16.60
2018-05-13T14:23:53.031Z,16.50
2018-05-13T14:26:20.513Z,16.40
2018-05-13T14:28:47.992Z,16.40
2018-05-13T14:31:16.269Z,16.10
2018-05-13T14:33:43.753Z,16.00
2018-05-13T14:36:12.017Z,15.80
2018-05-13T14:38:40.269Z,15.70
2018-05-13T14:41:07.868Z,15.70
2018-05-13T14:43:35.274Z,15.70
2018-05-13T14:46:02.774Z,15.60
2018-05-13T14:48:31.025Z,15.70
2018-05-13T14:50:58.531Z,15.70
2018-05-13T14:53:26.014Z,15.80
2018-05-13T14:55:53.509Z,15.80
2018-05-13T14:58:21.762Z,15.70
2018-05-13T15:00:49.257Z,15.70
2018-05-13T15:03:17.509Z,15.70
2018-05-13T15:05:45.029Z,15.70
2018-05-13T15:08:12.514Z,15.70
2018-05-13T15:10:40.002Z,15.70
2018-05-13T15:13:08.281Z,15.60
2018-05-13T15:15:35.761Z,15.60
2018-05-13T15:18:04.025Z,15.40
2018-05-13T15:20:32.284Z,15.40
2018-05-13T15:22:59.780Z,15.40
2018-05-13T15:25:27.257Z,15.40
2018-05-13T15:27:54.763Z,15.40
2018-05-13T15:30:22.261Z,15.30
2018-05-13T15:32:49.772Z,15.30
2018-05-13T15:35:17.263Z,15.30
2018-05-13T15:37:45.545Z,15.30
2018-05-13T15:40:13.796Z,15.20
2018-05-13T15:42:41.348Z,15.20
2018-05-13T15:45:08.789Z,15.10
2018-05-13T15:47:36.288Z,15.10
2018-05-13T15:50:04.543Z,15.10
2018-05-13T15:52:32.293Z,15.00
2018-05-13T15:54:59.836Z,15.10
2018-05-13T15:57:28.048Z,15.10
2018-05-13T15:59:55.547Z,15.10
2018-05-13T16:02:23.058Z,15.10
2018-05-13T16:04:50.553Z,15.10
2018-05-13T16:07:18.847Z,14.90
2018-05-13T16:09:47.089Z,14.80
2018-05-13T16:12:14.614Z,14.70
2018-05-13T16:14:42.091Z,14.70
2018-05-13T16:17:09.596Z,14.60
2018-05-13T16:19:37.842Z,14.50
2018-05-13T16:22:05.348Z,14.50
2018-05-13T16:24:32.847Z,14.50
2018-05-13T16:27:00.324Z,14.50
2018-05-13T16:29:27.829Z,14.40
2018-05-13T16:31:55.319Z,14.40
2018-05-13T16:34:22.813Z,14.40
2018-05-13T16:36:51.069Z,14.20
2018-05-13T16:39:18.565Z,14.10
2018-05-13T16:41:46.057Z,14.20
2018-05-13T16:44:13.568Z,14.20
2018-05-13T16:46:41.818Z,14.20
2018-05-13T16:49:09.313Z,14.20
2018-05-13T16:51:37.565Z,14.20
2018-05-13T16:54:05.837Z,14.20
2018-05-13T16:56:33.324Z,14.20
2018-05-13T16:59:01.600Z,14.20
2018-05-13T17:01:29.855Z,14.20
2018-05-13T17:03:57.359Z,14.10
2018-05-13T17:06:24.852Z,14.20
2018-05-13T17:08:52.352Z,14.10
2018-05-13T17:11:20.610Z,14.00
2018-05-13T17:13:48.104Z,14.00
2018-05-13T17:16:15.591Z,14.00
2018-05-13T17:18:43.140Z,13.90
2018-05-13T17:21:10.634Z,13.90
2018-05-13T17:23:38.235Z,13.80
2018-05-13T17:26:05.633Z,13.80
2018-05-13T17:28:33.136Z,13.70
2018-05-13T17:31:01.387Z,13.60
2018-05-13T17:33:28.897Z,13.60
2018-05-13T17:35:56.428Z,13.60
2018-05-13T17:38:23.920Z,13.60
2018-05-13T17:40:51.426Z,13.50
2018-05-13T17:43:18.918Z,13.50
2018-05-13T17:45:47.189Z,13.50
2018-05-13T17:48:16.177Z,13.40
2018-05-13T17:50:44.456Z,13.50
2018-05-13T17:53:12.781Z,13.50
2018-05-13T17:55:40.296Z,13.40
2018-05-13T17:58:08.619Z,13.50
2018-05-13T18:00:36.120Z,13.40
2018-05-13T18:03:03.631Z,13.50
2018-05-13T18:05:31.199Z,13.50
2018-05-13T18:07:58.630Z,13.50
2018-05-13T18:10:26.133Z,13.50
2018-05-13T18:12:53.629Z,13.40
2018-05-13T18:15:21.133Z,13.40
2018-05-13T18:17:48.628Z,13.40
2018-05-13T18:20:16.248Z,13.30
2018-05-13T18:22:43.741Z,13.30
2018-05-13T18:25:11.250Z,13.30
2018-05-13T18:27:39.498Z,13.20
2018-05-13T18:30:07.001Z,13.20
2018-05-13T18:32:34.493Z,13.20
2018-05-13T18:35:01.994Z,13.20
2018-05-13T18:37:30.255Z,13.10
2018-05-13T18:39:57.756Z,13.00
2018-05-13T18:42:25.241Z,13.10
2018-05-13T18:44:52.741Z,13.10
2018-05-13T18:47:20.997Z,12.90
2018-05-13T18:49:48.476Z,12.90
2018-05-13T18:52:16.739Z,12.90
2018-05-13T18:54:44.221Z,12.80
2018-05-13T18:57:12.494Z,12.80
2018-05-13T18:59:40.755Z,12.70
2018-05-13T19:02:08.256Z,12.60
2018-05-13T19:04:35.740Z,12.70
2018-05-13T19:07:03.233Z,12.60
2018-05-13T19:09:30.715Z,12.60
2018-05-13T19:11:59.088Z,12.50
2018-05-13T19:14:26.490Z,12.40
2018-05-13T19:16:53.991Z,12.50
2018-05-13T19:19:21.477Z,12.50
2018-05-13T19:21:49.749Z,12.40
2018-05-13T19:24:17.997Z,12.40
2018-05-13T19:26:45.499Z,12.30
2018-05-13T19:29:12.987Z,12.40
2018-05-13T19:31:40.497Z,12.40
2018-05-13T19:34:08.754Z,12.50
2018-05-13T19:36:36.290Z,12.40
2018-05-13T19:39:03.759Z,12.50
2018-05-13T19:41:31.261Z,12.50
2018-05-13T19:43:58.740Z,12.60
2018-05-13T19:46:26.238Z,12.60
2018-05-13T19:48:53.725Z,12.60
2018-05-13T19:51:22.013Z,12.70
2018-05-13T19:53:50.262Z,12.60
2018-05-13T19:56:17.742Z,12.60
2018-05-13T19:58:46.018Z,12.60
2018-05-13T20:01:14.277Z,12.50
2018-05-13T20:03:41.800Z,12.50
2018-05-13T20:06:09.277Z,12.60
2018-05-13T20:08:36.778Z,12.50
2018-05-13T20:11:05.025Z,12.50
2018-05-13T20:13:32.527Z,12.40
2018-05-13T20:16:00.011Z,12.40
2018-05-13T20:18:27.513Z,12.40
2018-05-13T20:20:54.993Z,12.40
2018-05-13T20:23:25.924Z,12.40
2018-05-13T20:25:53.369Z,12.40
2018-05-13T20:28:20.864Z,12.40
2018-05-13T20:30:48.351Z,12.40
2018-05-13T20:33:15.845Z,12.40
2018-05-13T20:35:43.324Z,12.40
2018-05-13T20:38:11.601Z,12.50
2018-05-13T20:40:39.849Z,12.50
2018-05-13T20:43:07.352Z,12.40
2018-05-13T20:45:35.611Z,12.60
2018-05-13T20:48:03.149Z,12.50
2018-05-13T20:50:30.638Z,12.50
2018-05-13T20:52:58.922Z,12.50
2018-05-13T20:55:27.171Z,12.50
2018-05-13T20:57:54.782Z,12.40
2018-05-13T21:00:22.183Z,12.40
2018-05-13T21:02:49.666Z,12.30
2018-05-13T21:05:18.022Z,12.30
2018-05-13T21:07:45.466Z,12.20
2018-05-13T21:10:12.965Z,12.30
2018-05-13T21:12:41.214Z,12.30
2018-05-13T21:15:08.713Z,12.20
2018-05-13T21:17:36.956Z,12.20
2018-05-13T21:20:04.460Z,12.20
2018-05-13T21:22:32.977Z,12.20
2018-05-13T21:25:00.484Z,12.20
2018-05-13T21:27:28.742Z,12.20
2018-05-13T21:29:56.244Z,12.10
2018-05-13T21:32:23.731Z,12.20
2018-05-13T21:34:51.237Z,12.20
2018-05-13T21:37:19.486Z,12.20
2018-05-13T21:39:46.988Z,12.10
2018-05-13T21:42:14.480Z,12.20
2018-05-13T21:44:41.980Z,12.20
2018-05-13T21:47:10.241Z,12.20
2018-05-13T21:49:37.738Z,12.10
2018-05-13T21:52:05.226Z,12.20
2018-05-13T21:54:32.784Z,12.20
2018-05-13T21:57:00.990Z,12.10
2018-05-13T21:59:28.489Z,12.00
2018-05-13T22:01:56.815Z,12.00
2018-05-13T22:04:25.036Z,12.00
2018-05-13T22:06:53.301Z,12.00
2018-05-13T22:09:21.555Z,12.00
2018-05-13T22:11:49.076Z,11.90
2018-05-13T22:14:16.565Z,11.90
2018-05-13T22:16:44.074Z,11.90
2018-05-13T22:19:12.332Z,11.90
2018-05-13T22:21:39.838Z,11.90
2018-05-13T22:24:07.312Z,11.90
2018-05-13T22:26:34.816Z,11.90
2018-05-13T22:29:03.064Z,11.90
2018-05-13T22:31:30.565Z,11.80
2018-05-13T22:33:58.865Z,11.80
2018-05-13T22:36:26.416Z,11.80
2018-05-13T22:38:53.875Z,11.80
2018-05-13T22:41:21.375Z,11.80
2018-05-13T22:43:48.861Z,11.80
2018-05-13T22:46:17.136Z,11.80
2018-05-13T22:48:44.617Z,11.70
2018-05-13T22:51:12.882Z,11.70
2018-05-13T22:53:41.133Z,11.70
2018-05-13T22:56:08.646Z,11.60
2018-05-13T22:58:36.141Z,11.70
2018-05-13T23:01:03.650Z,11.70
2018-05-13T23:03:31.902Z,11.70
2018-05-13T23:05:59.508Z,11.60
2018-05-13T23:08:26.994Z,11.60
2018-05-13T23:10:54.500Z,11.60
2018-05-13T23:13:22.750Z,11.60
2018-05-13T23:15:50.372Z,11.60
2018-05-13T23:18:17.856Z,11.60
2018-05-13T23:20:45.336Z,11.60
2018-05-13T23:23:12.833Z,11.70
2018-05-13T23:25:40.313Z,11.70
2018-05-13T23:28:07.817Z,11.70
2018-05-13T23:30:35.298Z,11.70
2018-05-13T23:33:03.569Z,11.70
2018-05-13T23:35:31.825Z,11.70
2018-05-13T23:37:59.325Z,11.60
2018-05-13T23:40:26.814Z,11.70
2018-05-13T23:42:54.313Z,11.70
2018-05-13T23:45:21.790Z,11.70
2018-05-13T23:47:50.057Z,11.70
2018-05-13T23:50:18.321Z,11.70
2018-05-13T23:52:45.824Z,11.60
2018-05-13T23:55:13.308Z,11.70
2018-05-13T23:57:40.804Z,11.70
